createdAt,value
2018-04-28T00:00:58.231Z,9.2
2018-04-28T00:01:57.148Z,9.2
2018-04-28T00:02:56.571Z,9.2
2018-04-28T00:03:55.175Z,9.2
2018-04-28T00:04:54.599Z,9.2
2018-04-28T00:05:54.032Z,9.2
2018-04-28T00:06:52.753Z,9.2
2018-04-28T00:07:52.458Z,9.2
2018-04-28T00:08:50.979Z,9.2
2018-04-28T00:09:50.406Z,9.2
2018-04-28T00:10:49.336Z,9.2
2018-04-28T00:11:48.660Z,9.3
2018-04-28T00:12:47.775Z,9.3
2018-04-28T00:13:46.891Z,9.3
2018-04-28T00:15:45.196Z,9.4
2018-04-28T00:16:44.611Z,9.4
2018-04-28T00:17:43.417Z,9.4
2018-04-28T00:18:42.766Z,9.4
2018-04-28T00:19:41.467Z,9.4
2018-04-28T00:20:40.679Z,9.5
2018-04-28T00:21:39.885Z,9.5
2018-04-28T00:22:39.200Z,9.5
2018-04-28T00:24:37.176Z,9.5
2018-04-28T00:25:36.386Z,9.6
2018-04-28T00:26:35.383Z,9.6
2018-04-28T00:27:34.752Z,9.6
2018-04-28T00:28:33.971Z,9.7
2018-04-28T00:29:32.971Z,9.7
2018-04-28T00:30:32.288Z,9.7
2018-04-28T00:31:31.613Z,9.7
2018-04-28T00:32:30.429Z,9.8
2018-04-28T00:33:29.638Z,9.8
2018-04-28T00:34:28.852Z,9.8
2018-04-28T00:35:28.167Z,9.9
2018-04-28T00:36:26.986Z,9.9
2018-04-28T00:37:26.305Z,9.9
2018-04-28T00:38:25.626Z,9.9
2018-04-28T00:39:24.341Z,9.9
2018-04-28T00:40:24.046Z,10
2018-04-28T00:41:22.854Z,10
2018-04-28T00:42:22.179Z,10
2018-04-28T00:43:21.495Z,10
2018-04-28T00:44:20.100Z,10.1
2018-04-28T00:45:19.411Z,10.1
2018-04-28T00:46:18.836Z,10.1
2018-04-28T00:47:17.702Z,10.1
2018-04-28T00:48:17.141Z,10.1
2018-04-28T00:49:16.069Z,10.1
2018-04-28T00:50:15.170Z,10.1
2018-04-28T00:51:14.891Z,10.1
2018-04-28T00:52:13.901Z,10.1
2018-04-28T00:52:44.137Z,10.1
2018-04-28T00:53:14.365Z,10.1
2018-04-28T00:54:11.662Z,10.1
2018-04-28T00:55:10.760Z,10.1
2018-04-28T00:56:10.185Z,10.1
2018-04-28T00:57:09.388Z,10.1
2018-04-28T00:58:08.590Z,10
2018-04-28T00:59:07.291Z,10
2018-04-28T01:00:06.597Z,10
2018-04-28T01:01:05.605Z,10
2018-04-28T01:02:05.037Z,10
2018-04-28T01:04:03.137Z,10
2018-04-28T01:05:02.473Z,10
2018-04-28T01:06:01.787Z,10
2018-04-28T01:07:01.105Z,9.9
2018-04-28T01:07:59.815Z,10
2018-04-28T01:08:59.133Z,10
2018-04-28T01:09:58.449Z,9.9
2018-04-28T01:10:57.268Z,9.9
2018-04-28T01:11:56.580Z,9.9
2018-04-28T01:12:55.891Z,9.9
2018-04-28T01:13:54.803Z,9.9
2018-04-28T01:14:54.113Z,9.9
2018-04-28T01:15:52.920Z,9.9
2018-04-28T01:16:52.411Z,9.9
2018-04-28T01:17:51.508Z,9.9
2018-04-28T01:18:50.817Z,9.8
2018-04-28T01:19:49.516Z,9.8
2018-04-28T01:20:48.619Z,9.8
2018-04-28T01:21:47.827Z,9.8
2018-04-28T01:22:47.033Z,9.8
2018-04-28T01:23:46.353Z,9.8
2018-04-28T01:24:45.771Z,9.8
2018-04-28T01:25:15.799Z,9.8
2018-04-28T01:25:46.533Z,9.8
2018-04-28T01:26:43.830Z,9.8
2018-04-28T01:27:43.036Z,9.7
2018-04-28T01:28:42.353Z,9.7
2018-04-28T01:29:41.290Z,9.7
2018-04-28T01:30:40.611Z,9.7
2018-04-28T01:31:39.429Z,9.7
2018-04-28T01:32:10.179Z,9.7
2018-04-28T01:32:40.310Z,9.7
2018-04-28T01:33:10.718Z,9.7
2018-04-28T01:33:41.348Z,9.7
2018-04-28T01:34:11.976Z,9.7
2018-04-28T01:34:42.615Z,9.6
2018-04-28T01:35:13.134Z,9.6
2018-04-28T01:36:34.988Z,9.6
2018-04-28T01:37:34.408Z,9.6
2018-04-28T01:38:33.615Z,9.6
2018-04-28T01:39:33.050Z,9.6
2018-04-28T01:40:31.860Z,9.7
2018-04-28T01:41:31.181Z,9.7
2018-04-28T01:42:30.005Z,9.7
2018-04-28T01:43:29.206Z,9.7
2018-04-28T01:44:28.633Z,9.7
2018-04-28T01:45:27.732Z,9.7
2018-04-28T01:45:58.365Z,9.7
2018-04-28T01:46:29.099Z,9.7
2018-04-28T01:47:25.903Z,9.7
2018-04-28T01:48:25.213Z,9.7
2018-04-28T01:49:23.702Z,9.7
2018-04-28T01:50:23.302Z,9.7
2018-04-28T01:51:22.528Z,9.6
2018-04-28T01:52:21.846Z,9.6
2018-04-28T01:53:21.048Z,9.6
2018-04-28T01:54:19.748Z,9.6
2018-04-28T01:55:18.970Z,9.6
2018-04-28T01:56:18.290Z,9.6
2018-04-28T01:57:17.614Z,9.6
2018-04-28T01:58:16.430Z,9.6
2018-04-28T01:59:15.746Z,9.6
2018-04-28T02:00:15.059Z,9.6
2018-04-28T02:01:13.761Z,9.6
2018-04-28T02:02:13.179Z,9.6
2018-04-28T02:03:12.392Z,9.6
2018-04-28T02:04:11.705Z,9.6
2018-04-28T02:05:10.520Z,9.6
2018-04-28T02:06:10.021Z,9.6
2018-04-28T02:07:08.616Z,9.6
2018-04-28T02:08:07.825Z,9.6
2018-04-28T02:10:06.107Z,9.6
2018-04-28T02:11:05.310Z,9.6
2018-04-28T02:12:04.518Z,9.6
2018-04-28T02:13:03.734Z,9.5
2018-04-28T02:13:34.372Z,9.5
2018-04-28T02:14:04.903Z,9.5
2018-04-28T02:14:35.532Z,9.5
2018-04-28T02:16:01.020Z,9.5
2018-04-28T02:17:00.444Z,9.5
2018-04-28T02:17:59.770Z,9.5
2018-04-28T02:18:58.698Z,9.5
2018-04-28T02:19:57.897Z,9.5
2018-04-28T02:20:57.210Z,9.5
2018-04-28T02:21:56.021Z,9.5
2018-04-28T02:22:55.232Z,9.5
2018-04-28T02:23:54.663Z,9.5
2018-04-28T02:24:53.257Z,9.5
2018-04-28T02:25:52.472Z,9.5
2018-04-28T02:26:51.688Z,9.5
2018-04-28T02:27:51.013Z,9.5
2018-04-28T02:29:49.323Z,9.5
2018-04-28T02:30:48.654Z,9.5
2018-04-28T02:31:47.476Z,9.4
2018-04-28T02:33:45.535Z,9.4
2018-04-28T02:34:44.882Z,9.4
2018-04-28T02:35:44.313Z,9.4
2018-04-28T02:36:43.176Z,9.4
2018-04-28T02:37:42.509Z,9.4
2018-04-28T02:38:41.730Z,9.4
2018-04-28T02:39:40.568Z,9.4
2018-04-28T02:40:39.881Z,9.4
2018-04-28T02:41:39.309Z,9.4
2018-04-28T02:42:38.233Z,9.4
2018-04-28T02:43:37.710Z,9.4
2018-04-28T02:44:36.460Z,9.4
2018-04-28T02:45:35.994Z,9.4
2018-04-28T02:46:34.826Z,9.4
2018-04-28T02:47:34.148Z,9.4
2018-04-28T02:48:32.858Z,9.4
2018-04-28T02:49:32.172Z,9.4
2018-04-28T02:50:31.600Z,9.4
2018-04-28T02:51:30.533Z,9.4
2018-04-28T02:52:29.751Z,9.4
2018-04-28T02:53:28.697Z,9.4
2018-04-28T02:54:27.919Z,9.4
2018-04-28T02:55:27.046Z,9.4
2018-04-28T02:56:26.371Z,9.4
2018-04-28T02:57:25.704Z,9.4
2018-04-28T02:58:24.413Z,9.4
2018-04-28T02:59:23.731Z,9.4
2018-04-28T02:59:54.476Z,9.4
2018-04-28T03:00:24.413Z,9.4
2018-04-28T03:01:21.720Z,9.4
2018-04-28T03:02:21.043Z,9.4
2018-04-28T03:03:20.259Z,9.4
2018-04-28T03:04:19.487Z,9.4
2018-04-28T03:05:18.715Z,9.4
2018-04-28T03:06:17.557Z,9.4
2018-04-28T03:07:16.768Z,9.4
2018-04-28T03:08:16.096Z,9.4
2018-04-28T03:09:14.802Z,9.4
2018-04-28T03:09:45.556Z,9.4
2018-04-28T03:11:13.680Z,9.4
2018-04-28T03:12:12.516Z,9.4
2018-04-28T03:13:11.836Z,9.4
2018-04-28T03:14:11.047Z,9.4
2018-04-28T03:15:09.872Z,9.4
2018-04-28T03:16:08.973Z,9.4
2018-04-28T03:17:08.402Z,9.4
2018-04-28T03:18:07.603Z,9.4
2018-04-28T03:19:06.604Z,9.4
2018-04-28T03:20:05.921Z,9.4
2018-04-28T03:21:04.752Z,9.4
2018-04-28T03:22:04.075Z,9.4
2018-04-28T03:23:02.993Z,9.4
2018-04-28T03:24:02.206Z,9.4
2018-04-28T03:25:01.512Z,9.4
2018-04-28T03:26:00.434Z,9.4
2018-04-28T03:27:58.633Z,9.3
2018-04-28T03:28:57.738Z,9.4
2018-04-28T03:29:56.950Z,9.4
2018-04-28T03:30:56.376Z,9.4
2018-04-28T03:31:55.388Z,9.4
2018-04-28T03:32:54.712Z,9.3
2018-04-28T03:33:53.421Z,9.4
2018-04-28T03:34:52.848Z,9.4
2018-04-28T03:35:52.062Z,9.4
2018-04-28T03:36:50.559Z,9.4
2018-04-28T03:37:50.269Z,9.4
2018-04-28T03:38:49.698Z,9.4
2018-04-28T03:39:48.503Z,9.4
2018-04-28T03:40:47.937Z,9.4
2018-04-28T03:41:46.752Z,9.4
2018-04-28T03:42:45.866Z,9.3
2018-04-28T03:43:45.258Z,9.3
2018-04-28T03:44:44.075Z,9.3
2018-04-28T03:45:43.392Z,9.3
2018-04-28T03:46:42.500Z,9.3
2018-04-28T03:47:41.923Z,9.3
2018-04-28T03:48:40.874Z,9.3
2018-04-28T03:49:40.290Z,9.3
2018-04-28T03:50:10.195Z,9.3
2018-04-28T03:50:40.503Z,9.3
2018-04-28T03:51:11.135Z,9.3
2018-04-28T03:51:41.655Z,9.3
2018-04-28T03:52:12.072Z,9.3
2018-04-28T03:53:37.229Z,9.3
2018-04-28T03:55:35.043Z,9.3
2018-04-28T03:56:33.989Z,9.3
2018-04-28T03:57:33.308Z,9.3
2018-04-28T03:58:32.122Z,9.3
2018-04-28T03:59:31.436Z,9.2
2018-04-28T04:00:30.775Z,9.2
2018-04-28T04:01:29.279Z,9.2
2018-04-28T04:01:59.917Z,9.2
2018-04-28T04:03:27.801Z,9.2
2018-04-28T04:04:26.899Z,9.2
2018-04-28T04:05:26.221Z,9.2
2018-04-28T04:06:25.433Z,9.2
2018-04-28T04:07:24.641Z,9.2
2018-04-28T04:08:23.421Z,9.2
2018-04-28T04:09:22.732Z,9.2
2018-04-28T04:10:22.043Z,9.2
2018-04-28T04:11:21.464Z,9.1
2018-04-28T04:12:20.179Z,9.1
2018-04-28T04:13:19.598Z,9.1
2018-04-28T04:14:18.414Z,9.1
2018-04-28T04:15:17.623Z,9.1
2018-04-28T04:16:16.932Z,9.2
2018-04-28T04:17:15.846Z,9.2
2018-04-28T04:18:15.321Z,9.2
2018-04-28T04:19:14.028Z,9.2
2018-04-28T04:20:13.338Z,9.2
2018-04-28T04:21:12.555Z,9.2
2018-04-28T04:22:11.657Z,9.2
2018-04-28T04:23:10.979Z,9.2
2018-04-28T04:24:09.779Z,9.2
2018-04-28T04:25:08.983Z,9.2
2018-04-28T04:26:07.982Z,9.2
2018-04-28T04:27:07.306Z,9.2
2018-04-28T04:28:06.631Z,9.2
2018-04-28T04:29:05.568Z,9.2
2018-04-28T04:30:04.768Z,9.2
2018-04-28T04:31:03.985Z,9.2
2018-04-28T04:32:03.299Z,9.2
2018-04-28T04:32:34.037Z,9.2
2018-04-28T04:33:04.571Z,9.2
2018-04-28T04:34:01.260Z,9.2
2018-04-28T04:35:00.579Z,9.2
2018-04-28T04:36:00.083Z,9.2
2018-04-28T04:36:58.897Z,9.2
2018-04-28T04:37:57.594Z,9.2
2018-04-28T04:38:57.025Z,9.2
2018-04-28T04:39:56.349Z,9.2
2018-04-28T04:40:55.270Z,9.3
2018-04-28T04:41:54.585Z,9.3
2018-04-28T04:42:53.398Z,9.3
2018-04-28T04:43:52.826Z,9.3
2018-04-28T04:44:52.037Z,9.3
2018-04-28T04:45:51.250Z,9.4
2018-04-28T04:46:50.175Z,9.4
2018-04-28T04:47:49.490Z,9.4
2018-04-28T04:48:48.370Z,9.4
2018-04-28T04:49:47.673Z,9.4
2018-04-28T04:51:45.876Z,9.4
2018-04-28T04:52:45.303Z,9.4
2018-04-28T04:53:44.122Z,9.4
2018-04-28T04:54:43.432Z,9.4
2018-04-28T04:55:42.358Z,9.4
2018-04-28T04:56:41.561Z,9.4
2018-04-28T04:57:40.659Z,9.5
2018-04-28T04:58:40.085Z,9.5
2018-04-28T04:59:38.794Z,9.6
2018-04-28T05:00:38.000Z,9.6
2018-04-28T05:01:37.307Z,9.7
2018-04-28T05:02:36.418Z,9.8
2018-04-28T05:03:35.840Z,9.8
2018-04-28T05:04:34.757Z,9.9
2018-04-28T05:05:34.181Z,10
2018-04-28T05:06:32.994Z,10.1
2018-04-28T05:07:32.323Z,10.1
2018-04-28T05:08:31.565Z,10.2
2018-04-28T05:09:30.489Z,10.2
2018-04-28T05:10:29.586Z,10.2
2018-04-28T05:11:28.898Z,10.3
2018-04-28T05:12:27.604Z,10.4
2018-04-28T05:13:26.921Z,10.5
2018-04-28T05:14:26.256Z,10.5
2018-04-28T05:15:25.468Z,10.6
2018-04-28T05:16:24.397Z,10.7
2018-04-28T05:17:23.709Z,10.7
2018-04-28T05:18:22.424Z,10.8
2018-04-28T05:19:21.741Z,10.8
2018-04-28T05:21:20.449Z,10.9
2018-04-28T05:22:19.160Z,10.9
2018-04-28T05:23:18.376Z,10.9
2018-04-28T05:24:17.690Z,10.9
2018-04-28T05:25:17.006Z,11
2018-04-28T05:26:15.822Z,11
2018-04-28T05:27:15.206Z,11
2018-04-28T05:28:13.905Z,11.1
2018-04-28T05:30:12.390Z,11.1
2018-04-28T05:31:11.708Z,11.2
2018-04-28T05:33:09.800Z,11.2
2018-04-28T05:34:09.115Z,11.2
2018-04-28T05:35:08.432Z,11.3
2018-04-28T05:36:08.057Z,11.3
2018-04-28T05:37:06.654Z,11.3
2018-04-28T05:38:05.860Z,11.3
2018-04-28T05:39:04.962Z,11.3
2018-04-28T05:40:04.386Z,11.4
2018-04-28T05:42:02.481Z,11.5
2018-04-28T05:43:01.480Z,11.6
2018-04-28T05:44:00.587Z,11.7
2018-04-28T05:44:59.576Z,11.7
2018-04-28T05:45:58.915Z,11.7
2018-04-28T05:46:58.233Z,11.8
2018-04-28T05:48:56.429Z,11.8
2018-04-28T05:49:55.743Z,11.8
2018-04-28T05:51:54.017Z,11.8
2018-04-28T05:52:53.338Z,11.9
2018-04-28T05:53:52.543Z,11.9
2018-04-28T05:54:51.248Z,12
2018-04-28T05:55:50.754Z,12
2018-04-28T05:56:49.964Z,12
2018-04-28T05:57:49.853Z,12.1
2018-04-28T05:58:48.527Z,12.1
2018-04-28T05:59:47.128Z,12.2
2018-04-28T06:01:45.723Z,12.3
2018-04-28T06:02:45.035Z,12.3
2018-04-28T06:03:44.349Z,12.3
2018-04-28T06:04:43.157Z,12.3
2018-04-28T06:05:42.369Z,12.3
2018-04-28T06:06:41.732Z,12.3
2018-04-28T06:07:41.159Z,12.4
2018-04-28T06:08:39.977Z,12.4
2018-04-28T06:09:39.405Z,12.4
2018-04-28T06:11:37.509Z,12.5
2018-04-28T06:12:36.825Z,12.6
2018-04-28T06:13:35.542Z,12.7
2018-04-28T06:14:35.000Z,12.7
2018-04-28T06:15:34.312Z,12.8
2018-04-28T06:16:33.633Z,13
2018-04-28T06:17:32.232Z,13
2018-04-28T06:18:31.440Z,13
2018-04-28T06:19:31.264Z,13.1
2018-04-28T06:20:29.971Z,13.1
2018-04-28T06:21:29.191Z,13.2
2018-04-28T06:22:28.513Z,13.2
2018-04-28T06:24:26.628Z,13.4
2018-04-28T06:25:25.840Z,13.5
2018-04-28T06:26:25.146Z,13.5
2018-04-28T06:27:24.573Z,13.6
2018-04-28T06:28:23.885Z,13.6
2018-04-28T06:29:22.589Z,13.7
2018-04-28T06:31:21.092Z,13.8
2018-04-28T06:32:20.418Z,13.8
2018-04-28T06:33:19.622Z,14
2018-04-28T06:34:19.046Z,14.1
2018-04-28T06:35:17.872Z,14.1
2018-04-28T06:36:17.196Z,14.1
2018-04-28T06:37:16.479Z,14.1
2018-04-28T06:38:15.807Z,14.2
2018-04-28T06:39:14.521Z,14.2
2018-04-28T06:40:13.836Z,14.2
2018-04-28T06:41:13.246Z,14.3
2018-04-28T06:42:12.465Z,14.3
2018-04-28T06:43:11.567Z,14.3
2018-04-28T06:44:10.776Z,14.4
2018-04-28T06:45:09.990Z,14.4
2018-04-28T06:46:09.211Z,14.4
2018-04-28T06:47:08.200Z,14.5
2018-04-28T06:48:07.522Z,14.6
2018-04-28T06:49:06.627Z,14.7
2018-04-28T06:51:05.366Z,14.8
2018-04-28T06:52:04.673Z,14.8
2018-04-28T06:53:03.057Z,14.8
2018-04-28T06:54:02.350Z,14.9
2018-04-28T06:55:01.975Z,15
2018-04-28T06:56:01.299Z,15
2018-04-28T06:57:00.405Z,15
2018-04-28T06:57:59.829Z,15
2018-04-28T06:58:59.160Z,15
2018-04-28T06:59:58.582Z,15
2018-04-28T07:00:57.413Z,15.1
2018-04-28T07:01:56.624Z,15.1
2018-04-28T07:02:55.941Z,15.1
2018-04-28T07:03:55.161Z,15.1
2018-04-28T07:04:54.489Z,15.2
2018-04-28T07:05:25.007Z,15.2
2018-04-28T07:05:55.528Z,15.2
2018-04-28T07:06:26.155Z,15.2
2018-04-28T07:06:56.675Z,15.3
2018-04-28T07:07:51.856Z,15.3
2018-04-28T07:08:51.063Z,15.3
2018-04-28T07:09:50.383Z,15.3
2018-04-28T07:10:49.833Z,15.4
2018-04-28T07:12:48.052Z,15.4
2018-04-28T07:13:47.482Z,15.5
2018-04-28T07:14:47.035Z,15.4
2018-04-28T07:15:45.958Z,15.4
2018-04-28T07:16:45.272Z,15.4
2018-04-28T07:17:44.694Z,15.5
2018-04-28T07:18:43.502Z,15.5
2018-04-28T07:19:42.825Z,15.6
2018-04-28T07:20:42.244Z,15.6
2018-04-28T07:21:41.561Z,15.7
2018-04-28T07:22:40.262Z,15.7
2018-04-28T07:23:39.589Z,15.7
2018-04-28T07:24:38.918Z,15.7
2018-04-28T07:25:38.234Z,15.7
2018-04-28T07:26:37.443Z,15.7
2018-04-28T07:27:36.541Z,15.7
2018-04-28T07:28:35.758Z,15.7
2018-04-28T07:29:35.075Z,15.7
2018-04-28T07:30:34.298Z,15.7
2018-04-28T07:32:32.892Z,15.8
2018-04-28T07:33:32.201Z,15.9
2018-04-28T07:34:31.520Z,15.9
2018-04-28T07:35:30.839Z,15.9
2018-04-28T07:36:30.161Z,15.9
2018-04-28T07:37:29.384Z,15.9
2018-04-28T07:38:28.592Z,16
2018-04-28T07:39:27.702Z,16
2018-04-28T07:40:27.021Z,16
2018-04-28T07:41:26.232Z,16
2018-04-28T07:42:25.713Z,16
2018-04-28T07:43:25.029Z,16.1
2018-04-28T07:44:23.733Z,16.1
2018-04-28T07:45:23.567Z,16.1
2018-04-28T07:46:22.167Z,16.2
2018-04-28T07:47:21.884Z,16.2
2018-04-28T07:47:52.301Z,16.2
2018-04-28T07:48:22.821Z,16.3
2018-04-28T07:49:20.246Z,16.3
2018-04-28T07:50:19.662Z,16.4
2018-04-28T07:51:18.880Z,16.4
2018-04-28T07:52:18.088Z,16.5
2018-04-28T07:53:17.292Z,16.5
2018-04-28T07:54:16.398Z,16.5
2018-04-28T07:55:15.842Z,16.5
2018-04-28T07:56:15.265Z,16.5
2018-04-28T07:57:14.482Z,16.5
2018-04-28T07:58:13.794Z,16.5
2018-04-28T07:58:44.284Z,16.5
2018-04-28T07:59:14.809Z,16.5
2018-04-28T07:59:45.112Z,16.5
2018-04-28T08:01:11.391Z,16.5
2018-04-28T08:02:10.597Z,16.5
2018-04-28T08:03:09.916Z,16.5
2018-04-28T08:04:09.346Z,16.5
2018-04-28T08:05:08.664Z,16.6
2018-04-28T08:06:07.979Z,16.6
2018-04-28T08:07:07.565Z,16.6
2018-04-28T08:08:06.290Z,16.6
2018-04-28T08:09:05.397Z,16.6
2018-04-28T08:10:04.714Z,16.7
2018-04-28T08:11:03.709Z,16.7
2018-04-28T08:12:03.525Z,16.8
2018-04-28T08:13:02.629Z,16.8
2018-04-28T08:16:00.508Z,16.8
2018-04-28T08:16:59.825Z,16.8
2018-04-28T08:17:59.036Z,16.9
2018-04-28T08:18:58.238Z,17
2018-04-28T08:20:56.936Z,17.1
2018-04-28T08:21:56.360Z,17.1
2018-04-28T08:22:55.577Z,17.1
2018-04-28T08:23:54.673Z,17.2
2018-04-28T08:24:53.985Z,17.2
2018-04-28T08:25:53.417Z,17.2
2018-04-28T08:26:52.832Z,17.2
2018-04-28T08:27:51.428Z,17.2
2018-04-28T08:28:51.247Z,17.2
2018-04-28T08:29:50.457Z,17.2
2018-04-28T08:30:49.771Z,17.2
2018-04-28T08:31:49.192Z,17.1
2018-04-28T08:32:48.407Z,17.2
2018-04-28T08:33:47.507Z,17.2
2018-04-28T08:34:46.498Z,17.2
2018-04-28T08:36:45.317Z,17.3
2018-04-28T08:37:44.708Z,17.3
2018-04-28T08:38:44.063Z,17.3
2018-04-28T08:39:43.053Z,17.3
2018-04-28T08:40:42.270Z,17.4
2018-04-28T08:41:41.990Z,17.4
2018-04-28T08:42:41.102Z,17.3
2018-04-28T08:43:40.532Z,17.3
2018-04-28T08:45:39.873Z,17.3
2018-04-28T08:46:37.977Z,17.3
2018-04-28T08:47:37.683Z,17.3
2018-04-28T08:49:36.068Z,17.3
2018-04-28T08:51:34.773Z,17.3
2018-04-28T08:52:34.094Z,17.3
2018-04-28T08:53:33.307Z,17.3
2018-04-28T08:54:32.660Z,17.3
2018-04-28T08:55:31.867Z,17.3
2018-04-28T08:56:31.090Z,17.3
2018-04-28T08:57:30.510Z,17.4
2018-04-28T08:58:29.733Z,17.4
2018-04-28T08:59:28.942Z,17.4
2018-04-28T09:00:28.148Z,17.5
2018-04-28T09:01:27.860Z,17.5
2018-04-28T09:02:26.855Z,17.5
2018-04-28T09:03:26.165Z,17.6
2018-04-28T09:04:25.163Z,17.6
2018-04-28T09:05:24.873Z,17.6
2018-04-28T09:06:24.191Z,17.5
2018-04-28T09:07:23.526Z,17.5
2018-04-28T09:08:22.859Z,17.6
2018-04-28T09:09:22.176Z,17.6
2018-04-28T09:10:21.270Z,17.6
2018-04-28T09:11:20.689Z,17.6
2018-04-28T09:12:20.110Z,17.7
2018-04-28T09:13:19.530Z,17.7
2018-04-28T09:14:18.848Z,17.8
2018-04-28T09:15:17.775Z,17.8
2018-04-28T09:16:16.982Z,17.9
2018-04-28T09:17:16.701Z,17.9
2018-04-28T09:18:16.011Z,18
2018-04-28T09:19:15.215Z,18
2018-04-28T09:20:14.536Z,17.9
2018-04-28T09:21:13.869Z,17.9
2018-04-28T09:22:13.181Z,17.9
2018-04-28T09:23:12.611Z,17.9
2018-04-28T09:24:11.334Z,17.9
2018-04-28T09:25:11.265Z,17.9
2018-04-28T09:25:41.394Z,17.9
2018-04-28T09:26:12.184Z,17.9
2018-04-28T09:27:09.241Z,18
2018-04-28T09:28:08.950Z,18.1
2018-04-28T09:29:08.381Z,18.3
2018-04-28T09:30:07.693Z,18.3
2018-04-28T09:31:07.129Z,18.3
2018-04-28T09:32:06.120Z,18.2
2018-04-28T09:33:06.020Z,18.2
2018-04-28T09:34:04.843Z,18.1
2018-04-28T09:35:03.834Z,18.2
2018-04-28T09:36:03.049Z,18.2
2018-04-28T09:36:33.797Z,18.2
2018-04-28T09:37:03.920Z,18.2
2018-04-28T09:37:34.566Z,18.2
2018-04-28T09:38:05.097Z,18.1
2018-04-28T09:38:35.839Z,18.1
2018-04-28T09:39:06.475Z,18.1
2018-04-28T09:39:36.605Z,18.1
2018-04-28T09:41:00.115Z,18
2018-04-28T09:41:59.539Z,18.1
2018-04-28T09:42:58.354Z,18.2
2018-04-28T09:43:57.452Z,18.3
2018-04-28T09:44:57.061Z,18.4
2018-04-28T09:45:56.272Z,18.4
2018-04-28T09:46:55.599Z,18.4
2018-04-28T09:47:54.813Z,18.3
2018-04-28T09:48:54.526Z,18.4
2018-04-28T09:49:53.738Z,18.4
2018-04-28T09:50:53.058Z,18.4
2018-04-28T09:51:52.270Z,18.5
2018-04-28T09:52:51.599Z,18.6
2018-04-28T09:53:50.909Z,18.7
2018-04-28T09:54:50.123Z,18.8
2018-04-28T09:55:49.439Z,18.8
2018-04-28T09:56:48.943Z,18.8
2018-04-28T09:57:48.376Z,18.9
2018-04-28T09:58:47.693Z,18.9
2018-04-28T09:59:46.912Z,19
2018-04-28T10:00:46.342Z,19
2018-04-28T10:01:45.569Z,19
2018-04-28T10:03:44.056Z,18.9
2018-04-28T10:04:43.382Z,19
2018-04-28T10:05:42.587Z,19.1
2018-04-28T10:06:41.899Z,19
2018-04-28T10:07:41.829Z,18.9
2018-04-28T10:08:40.750Z,18.8
2018-04-28T10:09:40.169Z,18.9
2018-04-28T10:10:39.275Z,18.9
2018-04-28T10:11:38.708Z,18.9
2018-04-28T10:12:38.280Z,19
2018-04-28T10:13:37.488Z,19
2018-04-28T10:14:36.812Z,19.2
2018-04-28T10:15:36.025Z,19.2
2018-04-28T10:16:35.299Z,19.2
2018-04-28T10:17:34.518Z,19.2
2018-04-28T10:18:33.835Z,19.3
2018-04-28T10:19:33.248Z,19.3
2018-04-28T10:20:03.196Z,19.3
2018-04-28T10:20:33.841Z,19.3
2018-04-28T10:21:04.261Z,19.3
2018-04-28T10:21:34.896Z,19.3
2018-04-28T10:22:31.301Z,19.3
2018-04-28T10:23:30.615Z,19.4
2018-04-28T10:24:29.624Z,19.4
2018-04-28T10:26:28.720Z,19.4
2018-04-28T10:27:27.829Z,19.4
2018-04-28T10:28:27.541Z,19.3
2018-04-28T10:29:26.958Z,19.4
2018-04-28T10:31:25.557Z,19.5
2018-04-28T10:33:24.160Z,19.7
2018-04-28T10:34:23.471Z,19.7
2018-04-28T10:35:22.461Z,19.6
2018-04-28T10:37:21.666Z,19.6
2018-04-28T10:38:20.877Z,19.6
2018-04-28T10:40:19.572Z,19.5
2018-04-28T10:41:18.683Z,19.4
2018-04-28T10:42:18.293Z,19.5
2018-04-28T10:44:16.782Z,19.8
2018-04-28T10:45:15.880Z,19.8
2018-04-28T10:47:15.095Z,19.8
2018-04-28T10:49:13.683Z,19.7
2018-04-28T10:50:13.103Z,19.8
2018-04-28T10:52:11.917Z,19.8
2018-04-28T10:53:11.239Z,19.9
2018-04-28T10:55:09.834Z,19.9
2018-04-28T10:56:09.264Z,20
2018-04-28T10:57:08.475Z,19.9
2018-04-28T10:58:07.789Z,19.9
2018-04-28T10:59:07.021Z,19.9
2018-04-28T11:00:06.223Z,19.9
2018-04-28T11:01:05.933Z,19.8
2018-04-28T11:02:05.131Z,19.8
2018-04-28T11:03:04.236Z,19.9
2018-04-28T11:04:03.939Z,19.8
2018-04-28T11:05:03.156Z,19.9
2018-04-28T11:06:02.593Z,19.9
2018-04-28T11:07:01.590Z,20
2018-04-28T11:08:01.517Z,19.9
2018-04-28T11:09:00.734Z,19.9
2018-04-28T11:10:00.051Z,20
2018-04-28T11:11:58.858Z,20.3
2018-04-28T11:12:58.072Z,20.3
2018-04-28T11:13:57.276Z,20.4
2018-04-28T11:14:56.985Z,20.4
2018-04-28T11:15:56.197Z,20.5
2018-04-28T11:16:26.720Z,20.5
2018-04-28T11:16:57.240Z,20.4
2018-04-28T11:17:55.151Z,20.4
2018-04-28T11:18:54.569Z,20.4
2018-04-28T11:20:53.062Z,20.4
2018-04-28T11:21:52.049Z,20.2
2018-04-28T11:22:51.871Z,20.3
2018-04-28T11:23:50.980Z,20.2
2018-04-28T11:25:50.047Z,20.4
2018-04-28T11:26:49.308Z,20.3
2018-04-28T11:27:19.326Z,20.3
2018-04-28T11:27:50.058Z,20.4
2018-04-28T11:28:47.873Z,20.4
2018-04-28T11:29:47.298Z,20.4
2018-04-28T11:30:46.516Z,20.5
2018-04-28T11:31:46.349Z,20.4
2018-04-28T11:32:45.556Z,20.4
2018-04-28T11:33:45.059Z,20.4
2018-04-28T11:34:44.162Z,20.4
2018-04-28T11:35:43.486Z,20.4
2018-04-28T11:36:42.697Z,20.3
2018-04-28T11:37:42.533Z,20.4
2018-04-28T11:38:41.971Z,20.5
2018-04-28T11:39:41.292Z,20.3
2018-04-28T11:40:40.388Z,20.3
2018-04-28T11:41:39.901Z,20.3
2018-04-28T11:42:39.113Z,20.4
2018-04-28T11:43:39.257Z,20.5
2018-04-28T11:44:37.962Z,20.6
2018-04-28T11:45:37.173Z,20.6
2018-04-28T11:46:36.882Z,20.7
2018-04-28T11:47:36.113Z,20.8
2018-04-28T11:48:35.542Z,20.9
2018-04-28T11:49:35.258Z,21
2018-04-28T11:50:34.587Z,21.1
2018-04-28T11:51:33.798Z,21.2
2018-04-28T11:52:33.229Z,21.3
2018-04-28T11:53:32.541Z,21.3
2018-04-28T11:54:31.757Z,21.4
2018-04-28T11:55:31.621Z,21.5
2018-04-28T11:56:30.936Z,21.3
2018-04-28T11:57:30.360Z,21.2
2018-04-28T11:58:29.786Z,21.2
2018-04-28T11:59:29.103Z,21.3
2018-04-28T12:00:28.528Z,21.4
2018-04-28T12:01:27.845Z,21.5
2018-04-28T12:02:27.059Z,21.6
2018-04-28T12:03:26.777Z,21.6
2018-04-28T12:04:25.871Z,21.5
2018-04-28T12:05:25.477Z,21.5
2018-04-28T12:06:24.792Z,21.5
2018-04-28T12:07:24.124Z,21.5
2018-04-28T12:09:23.338Z,21.5
2018-04-28T12:10:22.660Z,21.6
2018-04-28T12:11:21.765Z,21.7
2018-04-28T12:12:21.589Z,21.7
2018-04-28T12:13:20.901Z,21.6
2018-04-28T12:14:20.240Z,21.7
2018-04-28T12:15:19.447Z,21.8
2018-04-28T12:16:19.059Z,21.9
2018-04-28T12:17:18.382Z,21.8
2018-04-28T12:18:17.698Z,21.7
2018-04-28T12:19:17.438Z,21.5
2018-04-28T12:20:16.766Z,21.4
2018-04-28T12:21:15.981Z,21.4
2018-04-28T12:22:15.819Z,21.3
2018-04-28T12:23:15.024Z,21.4
2018-04-28T12:24:14.232Z,21.5
2018-04-28T12:25:13.838Z,21.6
2018-04-28T12:26:12.936Z,21.7
2018-04-28T12:30:10.916Z,22.1
2018-04-28T12:31:10.243Z,22.1
2018-04-28T12:32:10.060Z,22
2018-04-28T12:33:09.274Z,22
2018-04-28T12:34:08.612Z,22.1
2018-04-28T12:35:08.040Z,22.3
2018-04-28T12:36:09.319Z,22.3
2018-04-28T12:37:07.023Z,22.3
2018-04-28T12:38:06.235Z,22.3
2018-04-28T12:39:06.063Z,22.2
2018-04-28T12:40:05.271Z,22.2
2018-04-28T12:41:04.596Z,22.3
2018-04-28T12:42:04.408Z,22.1
2018-04-28T12:43:03.699Z,22.1
2018-04-28T12:44:02.904Z,22.2
2018-04-28T12:45:02.519Z,22.2
2018-04-28T12:46:01.628Z,22.4
2018-04-28T12:47:01.228Z,22.4
2018-04-28T12:49:00.330Z,22.5
2018-04-28T12:49:59.536Z,22.5
2018-04-28T12:50:59.242Z,22.6
2018-04-28T12:51:58.562Z,22.6
2018-04-28T12:54:57.168Z,22.4
2018-04-28T12:55:56.380Z,22.4
2018-04-28T12:56:56.278Z,22.4
2018-04-28T12:58:54.972Z,22.6
2018-04-28T12:59:54.196Z,22.6
2018-04-28T13:00:54.031Z,22.4
2018-04-28T13:01:53.237Z,22.4
2018-04-28T13:02:52.452Z,22.4
2018-04-28T13:03:52.281Z,22.3
2018-04-28T13:04:51.764Z,22.1
2018-04-28T13:05:50.977Z,22.2
2018-04-28T13:06:50.292Z,22.2
2018-04-28T13:07:49.896Z,22
2018-04-28T13:08:49.209Z,22
2018-04-28T13:09:49.147Z,22
2018-04-28T13:10:48.471Z,22.2
2018-04-28T13:11:18.993Z,22.2
2018-04-28T13:11:49.621Z,22.3
2018-04-28T13:12:20.377Z,22.3
2018-04-28T13:12:51.021Z,22.5
2018-04-28T13:13:21.036Z,22.5
2018-04-28T13:14:46.134Z,22.7
2018-04-28T13:15:45.692Z,22.6
2018-04-28T13:16:44.823Z,22.6
2018-04-28T13:17:44.753Z,22.6
2018-04-28T13:18:44.184Z,22.5
2018-04-28T13:19:43.501Z,22.5
2018-04-28T13:20:42.619Z,22.6
2018-04-28T13:21:42.556Z,22.8
2018-04-28T13:22:42.198Z,22.9
2018-04-28T13:23:12.216Z,22.9
2018-04-28T13:23:42.855Z,22.9
2018-04-28T13:24:13.163Z,22.9
2018-04-28T13:24:43.888Z,23
2018-04-28T13:26:39.570Z,23.3
2018-04-28T13:27:39.004Z,23
2018-04-28T13:28:38.900Z,23.2
2018-04-28T13:29:37.720Z,23.3
2018-04-28T13:30:37.431Z,23
2018-04-28T13:31:36.633Z,23.1
2018-04-28T13:32:36.463Z,23.1
2018-04-28T13:33:35.883Z,23
2018-04-28T13:34:35.209Z,23
2018-04-28T13:35:35.033Z,23
2018-04-28T13:36:34.243Z,23
2018-04-28T13:37:33.558Z,22.9
2018-04-28T13:38:33.165Z,23
2018-04-28T13:39:32.771Z,23.1
2018-04-28T13:40:31.769Z,23.2
2018-04-28T13:41:31.481Z,23.3
2018-04-28T13:42:31.090Z,23.4
2018-04-28T13:43:30.301Z,23.3
2018-04-28T13:44:30.288Z,23.4
2018-04-28T13:45:29.716Z,23.3
2018-04-28T13:46:28.920Z,23.3
2018-04-28T13:48:28.127Z,22.9